createdAt,value
2017-06-16T00:00:53.234Z,99.99
2017-06-16T00:10:53.238Z,99.99
2017-06-16T00:20:53.245Z,99.99
2017-06-16T00:30:53.250Z,99.99
2017-06-16T00:40:53.241Z,99.99
2017-06-16T00:50:53.258Z,99.99
2017-06-16T01:00:53.235Z,99.99
2017-06-16T01:10:53.250Z,99.99
2017-06-16T01:20:53.246Z,99.99
2017-06-16T01:30:53.234Z,99.99
2017-06-16T01:40:53.228Z,99.99
2017-06-16T01:50:53.235Z,99.99
2017-06-16T02:00:53.247Z,99.99
2017-06-16T02:10:53.245Z,99.99
2017-06-16T02:20:53.245Z,99.99
2017-06-16T02:30:53.252Z,99.99
2017-06-16T02:40:53.239Z,99.99
2017-06-16T02:50:53.241Z,99.99
2017-06-16T03:00:53.235Z,99.99
2017-06-16T03:10:53.221Z,99.99
2017-06-16T03:20:53.228Z,99.99
2017-06-16T03:30:53.227Z,99.99
2017-06-16T03:40:53.282Z,99.99
2017-06-16T03:50:53.235Z,99.99
2017-06-16T04:00:53.271Z,99.99
2017-06-16T04:10:53.234Z,99.99
2017-06-16T04:20:53.250Z,99.99
2017-06-16T04:30:53.236Z,99.99
2017-06-16T04:40:53.224Z,99.99
2017-06-16T04:50:53.231Z,99.99
2017-06-16T05:00:53.247Z,99.99
2017-06-16T05:10:53.242Z,99.99
2017-06-16T05:20:53.232Z,99.99
2017-06-16T05:30:53.264Z,99.99
2017-06-16T05:40:53.228Z,99.99
2017-06-16T05:50:53.250Z,99.99
2017-06-16T06:00:53.237Z,99.99
2017-06-16T06:10:53.246Z,99.99
2017-06-16T06:20:53.259Z,99.99
2017-06-16T06:30:53.251Z,99.99
2017-06-16T06:40:53.232Z,99.99
2017-06-16T06:50:53.238Z,99.99
2017-06-16T07:00:53.262Z,99.99
2017-06-16T07:10:53.254Z,99.99
2017-06-16T07:20:53.258Z,99.99
2017-06-16T07:30:53.248Z,96.08
2017-06-16T07:40:53.261Z,79.41
2017-06-16T07:50:53.261Z,71.26
2017-06-16T08:00:53.284Z,65.08
2017-06-16T08:10:53.298Z,74.16
2017-06-16T08:20:53.304Z,80.49
2017-06-16T08:30:53.330Z,75.9
2017-06-16T08:40:53.278Z,69.04
2017-06-16T08:50:53.269Z,64.31
2017-06-16T09:00:53.804Z,54.27
2017-06-16T09:10:53.275Z,57.61
2017-06-16T09:20:53.255Z,64.59
2017-06-16T09:30:53.285Z,70.64
2017-06-16T09:40:53.294Z,77.9
2017-06-16T09:50:53.286Z,77.75
2017-06-16T10:00:53.294Z,71.24
2017-06-16T10:10:53.294Z,73.31
2017-06-16T10:20:53.299Z,71.6
2017-06-16T10:30:53.317Z,66.75
2017-06-16T10:40:53.317Z,71.19
2017-06-16T10:50:53.296Z,71.91
2017-06-16T11:00:53.280Z,67.45
2017-06-16T11:10:53.311Z,70.9
2017-06-16T11:20:53.296Z,68.16
2017-06-16T11:30:53.283Z,68.68
2017-06-16T11:40:53.290Z,72.27
2017-06-16T11:50:53.299Z,75.38
2017-06-16T12:00:53.292Z,71.11
2017-06-16T12:10:53.341Z,69.89
2017-06-16T12:20:53.292Z,69.85
2017-06-16T12:30:53.306Z,69.63
2017-06-16T12:40:53.295Z,67.51
2017-06-16T12:50:53.336Z,64.69
2017-06-16T13:00:53.317Z,62.7
2017-06-16T13:10:53.308Z,61.16
2017-06-16T13:20:53.306Z,62.05
2017-06-16T13:30:53.335Z,66.91
2017-06-16T13:40:53.307Z,68
2017-06-16T13:50:53.320Z,68.04
2017-06-16T14:00:53.319Z,66.43
2017-06-16T14:10:53.309Z,64.79
2017-06-16T14:20:53.322Z,62.66
2017-06-16T14:30:53.311Z,64.66
2017-06-16T14:40:53.344Z,65.66
2017-06-16T14:50:53.334Z,66.59
2017-06-16T15:00:53.331Z,70.12
2017-06-16T15:10:53.321Z,71.69
2017-06-16T15:20:53.322Z,70.11
2017-06-16T15:30:53.331Z,67.71
2017-06-16T15:40:53.325Z,68.7
2017-06-16T15:50:53.337Z,69.28
2017-06-16T16:00:53.320Z,72.32
2017-06-16T16:10:53.325Z,71.33
2017-06-16T16:20:53.328Z,69.34
2017-06-16T16:30:53.348Z,70.59
2017-06-16T16:40:53.340Z,71.36
2017-06-16T16:50:53.338Z,72.38
2017-06-16T17:00:53.352Z,73.15
2017-06-16T17:10:53.326Z,73.54
2017-06-16T17:20:53.464Z,73.54
2017-06-16T17:30:53.387Z,74.65
2017-06-16T17:40:53.411Z,74.55
2017-06-16T17:50:53.781Z,74.17
2017-06-16T18:00:53.441Z,74.75
2017-06-16T18:10:53.402Z,75.96
2017-06-16T18:20:53.375Z,76.82
2017-06-16T18:30:53.422Z,77.11
2017-06-16T18:40:53.383Z,78.94
2017-06-16T18:50:53.433Z,81.01
2017-06-16T19:00:53.409Z,82.03
2017-06-16T19:10:53.364Z,81.54
2017-06-16T19:20:53.451Z,80.15
2017-06-16T19:30:53.411Z,80.2
2017-06-16T19:40:53.347Z,81.07
2017-06-16T19:50:53.448Z,79.91
2017-06-16T20:00:53.376Z,81.84
2017-06-16T20:10:53.436Z,83.18
2017-06-16T20:20:53.417Z,84.86
2017-06-16T20:30:53.401Z,86.35
2017-06-16T20:40:53.491Z,88.27
2017-06-16T20:50:53.406Z,91.49
2017-06-16T21:00:53.441Z,93.93
2017-06-16T21:10:53.439Z,96.66
2017-06-16T21:20:53.389Z,99.24
2017-06-16T21:30:53.429Z,99.99
2017-06-16T21:40:53.394Z,99.99
2017-06-16T21:50:53.481Z,99.99
2017-06-16T22:00:53.425Z,99.99
2017-06-16T22:10:53.393Z,99.99
2017-06-16T22:20:53.447Z,99.99
2017-06-16T22:30:53.411Z,99.99
2017-06-16T22:40:53.465Z,99.99
2017-06-16T22:50:53.431Z,99.99
2017-06-16T23:00:53.390Z,99.99
2017-06-16T23:10:53.367Z,99.99
2017-06-16T23:20:53.428Z,99.99
2017-06-16T23:30:53.380Z,99.99
2017-06-16T23:40:53.447Z,99.99
2017-06-16T23:50:53.408Z,99.99
